Terminal Aerodrome Forecast
Issued by NWS

Home | Current Version | Previous Version | Text Only | Print | Product List | Glossary On
Versions: 1 2 3 4 5 6 7 8 9 10 11 12
179
FTUS43 KICT 250522
TAFCNU
TAF
KCNU 250522Z 2506/2606 12006KT P6SM VCSH BKN120
     FM251500 18010KT P6SM VCSH BKN100
     FM252100 16009KT P6SM VCTS SCT040 BKN090CB
     FM260000 10007KT P6SM VCTS OVC070CB=

USA.gov is the U.S. government's official web portal to all federal, state and local government web resources and services.